Time,TemperatureF,DewpointF,PressureIn,WindDirection,WindDirectionDegrees,WindSpeedMPH,WindSpeedGustMPH,Humidity,HourlyPrecipIn,Conditions,Clouds,dailyrainin,SoftwareType,DateUTC
2013-05-29 00:01:00,64.4,57.4,30.24,South,180,0.7,1.6,78,0.00,,,0.00,pywws,2013-05-29 04:01:00,
2013-05-29 00:04:00,64.4,57.4,30.23,South,180,0.7,1.6,78,0.00,,,0.00,pywws,2013-05-29 04:04:00,
2013-05-29 00:07:00,64.2,57.9,30.23,South,180,0.7,2.2,80,0.00,,,0.00,pywws,2013-05-29 04:07:00,
2013-05-29 00:09:00,64.2,57.9,30.23,SW,225,0.7,1.6,80,0.00,,,0.00,pywws,2013-05-29 04:09:00,
2013-05-29 00:12:00,64.0,58.1,30.23,SW,225,0.7,1.6,81,0.00,,,0.00,pywws,2013-05-29 04:12:00,
2013-05-29 00:18:00,64.0,58.1,30.23,South,180,1.6,2.2,81,0.00,,,0.00,pywws,2013-05-29 04:18:00,
2013-05-29 00:23:00,63.9,57.9,30.23,SE,135,0.0,1.6,81,0.00,,,0.00,pywws,2013-05-29 04:23:00,
2013-05-29 00:29:00,64.0,58.4,30.23,SW,225,1.6,2.2,82,0.00,,,0.00,pywws,2013-05-29 04:29:00,
2013-05-29 00:35:00,64.0,58.4,30.22,SE,135,0.7,2.2,82,0.00,,,0.00,pywws,2013-05-29 04:35:00,
2013-05-29 00:41:00,64.2,58.6,30.23,SW,225,0.0,0.7,82,0.00,,,0.00,pywws,2013-05-29 04:41:00,
2013-05-29 00:46:00,64.2,58.6,30.22,WSW,248,2.2,3.1,82,0.00,,,0.00,pywws,2013-05-29 04:46:00,
2013-05-29 00:52:00,64.4,59.1,30.22,East,90,0.7,2.2,83,0.00,,,0.00,pywws,2013-05-29 04:52:00,
2013-05-29 00:58:00,64.2,58.6,30.22,SE,135,0.7,2.2,82,0.00,,,0.00,pywws,2013-05-29 04:58:00,
2013-05-29 01:03:00,64.0,58.8,30.22,East,90,0.0,0.7,83,0.00,,,0.00,pywws,2013-05-29 05:03:00,
2013-05-29 01:09:00,63.9,58.6,30.22,East,90,0.7,1.6,83,0.00,,,0.00,pywws,2013-05-29 05:09:00,
2013-05-29 01:14:00,63.9,58.6,30.22,SW,225,0.7,1.6,83,0.00,,,0.00,pywws,2013-05-29 05:14:00,
2013-05-29 01:20:00,63.9,58.6,30.22,South,180,0.0,1.6,83,0.00,,,0.00,pywws,2013-05-29 05:20:00,
2013-05-29 01:27:00,63.9,58.6,30.22,SW,225,0.7,2.2,83,0.00,,,0.00,pywws,2013-05-29 05:27:00,
2013-05-29 01:33:00,64.0,59.1,30.22,South,180,1.6,3.8,84,0.00,,,0.00,pywws,2013-05-29 05:33:00,
2013-05-29 01:38:00,64.2,59.3,30.22,South,180,1.6,3.1,84,0.00,,,0.00,pywws,2013-05-29 05:38:00,
2013-05-29 01:44:00,64.6,60.0,30.21,West,270,0.7,2.2,85,0.00,,,0.00,pywws,2013-05-29 05:44:00,
2013-05-29 01:50:00,64.4,59.8,30.22,South,180,0.7,1.6,85,0.00,,,0.00,pywws,2013-05-29 05:50:00,
2013-05-29 01:55:00,64.2,58.9,30.21,SW,225,1.6,2.2,83,0.00,,,0.00,pywws,2013-05-29 05:55:00,
2013-05-29 02:06:00,64.0,58.8,30.21,SW,225,1.6,3.1,83,0.00,,,0.00,pywws,2013-05-29 06:06:00,
2013-05-29 02:11:00,63.5,58.6,30.21,South,180,2.2,4.5,84,0.00,,,0.00,pywws,2013-05-29 06:11:00,
2013-05-29 02:17:00,63.5,58.9,30.22,SW,225,1.6,4.5,85,0.00,,,0.00,pywws,2013-05-29 06:17:00,
2013-05-29 02:22:00,63.5,58.9,30.22,East,90,1.6,2.2,85,0.00,,,0.00,pywws,2013-05-29 06:22:00,
2013-05-29 02:28:00,63.5,58.9,30.22,West,270,0.7,2.2,85,0.00,,,0.00,pywws,2013-05-29 06:28:00,
2013-05-29 02:34:00,63.3,58.7,30.22,SE,135,1.6,3.8,85,0.00,,,0.00,pywws,2013-05-29 06:34:00,
2013-05-29 02:39:00,63.1,58.9,30.22,South,180,1.6,3.1,86,0.00,,,0.00,pywws,2013-05-29 06:39:00,
2013-05-29 02:45:00,63.1,58.9,30.22,East,90,1.6,3.1,86,0.00,,,0.00,pywws,2013-05-29 06:45:00,
2013-05-29 02:50:00,63.1,58.9,30.22,SE,135,0.7,2.2,86,0.00,,,0.00,pywws,2013-05-29 06:50:00,
2013-05-29 02:56:00,63.0,58.7,30.23,East,90,2.2,4.5,86,0.00,,,0.00,pywws,2013-05-29 06:56:00,
2013-05-29 03:03:00,63.0,59.0,30.22,SE,135,1.6,3.1,87,0.00,,,0.00,pywws,2013-05-29 07:03:00,
2013-05-29 03:09:00,62.8,58.8,30.22,SE,135,1.6,2.2,87,0.00,,,0.00,pywws,2013-05-29 07:09:00,
2013-05-29 03:14:00,62.6,58.7,30.23,SE,135,0.7,2.2,87,0.00,,,0.00,pywws,2013-05-29 07:14:00,
2013-05-29 03:20:00,62.6,59.0,30.23,NE,45,0.7,3.1,88,0.00,,,0.00,pywws,2013-05-29 07:20:00,
2013-05-29 03:26:00,62.4,59.1,30.23,SE,135,1.6,3.1,89,0.00,,,0.00,pywws,2013-05-29 07:26:00,
2013-05-29 03:31:00,62.2,59.0,30.23,SW,225,1.6,2.2,89,0.00,,,0.00,pywws,2013-05-29 07:31:00,
2013-05-29 03:37:00,62.2,59.0,30.24,North,0,0.7,1.6,89,0.00,,,0.00,pywws,2013-05-29 07:37:00,
2013-05-29 03:42:00,62.2,59.3,30.24,SE,135,1.6,3.1,90,0.00,,,0.00,pywws,2013-05-29 07:42:00,
2013-05-29 03:48:00,62.1,59.1,30.24,NE,45,0.0,0.7,90,0.00,,,0.00,pywws,2013-05-29 07:48:00,
2013-05-29 03:54:00,61.9,58.9,30.24,NE,45,0.7,1.6,90,0.00,,,0.00,pywws,2013-05-29 07:54:00,
2013-05-29 03:59:00,61.7,58.7,30.25,East,90,0.0,1.6,90,0.00,,,0.00,pywws,2013-05-29 07:59:00,
2013-05-29 04:05:00,61.7,58.7,30.24,East,90,0.0,1.6,90,0.00,,,0.00,pywws,2013-05-29 08:05:00,
2013-05-29 04:10:00,61.5,58.9,30.24,SE,135,0.0,0.7,91,0.00,,,0.00,pywws,2013-05-29 08:10:00,
2013-05-29 04:16:00,61.3,58.7,30.25,East,90,1.6,2.2,91,0.00,,,0.00,pywws,2013-05-29 08:16:00,
2013-05-29 04:23:00,61.2,58.8,30.25,SW,225,0.7,1.6,92,0.00,,,0.00,pywws,2013-05-29 08:23:00,
2013-05-29 04:29:00,61.2,58.8,30.25,NE,45,0.0,0.7,92,0.00,,,0.00,pywws,2013-05-29 08:29:00,
2013-05-29 04:34:00,61.0,58.6,30.25,NE,45,0.0,0.0,92,0.00,,,0.00,pywws,2013-05-29 08:34:00,
2013-05-29 04:40:00,60.8,58.5,30.25,South,180,0.0,0.0,92,0.00,,,0.00,pywws,2013-05-29 08:40:00,
2013-05-29 04:46:00,60.6,58.6,30.25,SW,225,0.7,1.6,93,0.00,,,0.00,pywws,2013-05-29 08:46:00,
2013-05-29 04:52:00,60.6,58.6,30.25,SW,225,0.0,1.6,93,0.00,,,0.00,pywws,2013-05-29 08:52:00,
2013-05-29 04:58:00,60.4,58.4,30.24,SE,135,1.6,3.1,93,0.00,,,0.00,pywws,2013-05-29 08:58:00,
2013-05-29 05:03:00,60.4,58.7,30.25,NE,45,0.7,1.6,94,0.00,,,0.00,pywws,2013-05-29 09:03:00,
2013-05-29 05:09:00,60.1,58.3,30.25,West,270,2.2,3.1,94,0.00,,,0.00,pywws,2013-05-29 09:09:00,
2013-05-29 05:14:00,60.1,58.3,30.25,South,180,0.7,1.6,94,0.00,,,0.00,pywws,2013-05-29 09:14:00,
2013-05-29 05:20:00,59.9,58.2,30.25,East,90,2.2,3.1,94,0.00,,,0.00,pywws,2013-05-29 09:20:00,
2013-05-29 05:27:00,59.9,58.5,30.24,South,180,0.0,1.6,95,0.00,,,0.00,pywws,2013-05-29 09:27:00,
2013-05-29 05:33:00,59.9,58.5,30.24,SW,225,0.0,0.7,95,0.00,,,0.00,pywws,2013-05-29 09:33:00,
2013-05-29 05:38:00,60.1,58.6,30.24,SE,135,0.0,2.2,95,0.00,,,0.00,pywws,2013-05-29 09:38:00,
2013-05-29 05:44:00,60.3,58.8,30.25,South,180,2.2,3.8,95,0.00,,,0.00,pywws,2013-05-29 09:44:00,
2013-05-29 05:50:00,60.3,58.8,30.25,SW,225,3.1,3.8,95,0.00,,,0.00,pywws,2013-05-29 09:50:00,
2013-05-29 05:55:00,60.3,58.8,30.25,South,180,1.6,3.1,95,0.00,,,0.00,pywws,2013-05-29 09:55:00,
2013-05-29 06:01:00,60.3,58.8,30.25,South,180,1.6,3.8,95,0.00,,,0.00,pywws,2013-05-29 10:01:00,
2013-05-29 06:07:00,60.4,59.0,30.25,SE,135,2.2,3.1,95,0.00,,,0.00,pywws,2013-05-29 10:07:00,
2013-05-29 06:13:00,60.4,59.0,30.25,SE,135,1.6,3.1,95,0.00,,,0.00,pywws,2013-05-29 10:13:00,
2013-05-29 06:19:00,60.3,58.8,30.25,South,180,0.7,1.6,95,0.00,,,0.00,pywws,2013-05-29 10:19:00,
2013-05-29 06:25:00,60.1,58.6,30.26,SE,135,0.0,1.6,95,0.00,,,0.00,pywws,2013-05-29 10:25:00,
2013-05-29 06:34:00,59.7,58.3,30.26,SE,135,0.0,1.6,95,0.00,,,0.00,pywws,2013-05-29 10:34:00,
2013-05-29 06:45:00,59.5,58.1,30.26,SW,225,0.0,1.6,95,0.00,,,0.00,pywws,2013-05-29 10:45:00,
2013-05-29 06:50:00,60.1,58.6,30.26,SE,135,1.6,2.2,95,0.00,,,0.00,pywws,2013-05-29 10:50:00,
2013-05-29 06:56:00,60.3,58.8,30.26,SE,135,1.6,3.1,95,0.00,,,0.00,pywws,2013-05-29 10:56:00,
2013-05-29 07:02:00,60.4,59.0,30.27,ESE,112,0.7,2.2,95,0.00,,,0.00,pywws,2013-05-29 11:02:00,
2013-05-29 07:07:00,60.4,59.0,30.27,SE,135,2.2,3.8,95,0.00,,,0.00,pywws,2013-05-29 11:07:00,
2013-05-29 07:13:00,60.6,58.9,30.27,East,90,0.7,1.6,94,0.00,,,0.00,pywws,2013-05-29 11:13:00,
2013-05-29 07:18:00,60.6,58.9,30.27,East,90,1.6,2.2,94,0.00,,,0.00,pywws,2013-05-29 11:18:00,
2013-05-29 07:24:00,60.6,58.6,30.27,SW,225,2.2,3.8,93,0.00,,,0.00,pywws,2013-05-29 11:24:00,
2013-05-29 07:30:00,61.0,58.6,30.27,South,180,1.6,2.2,92,0.00,,,0.00,pywws,2013-05-29 11:30:00,
2013-05-29 07:35:00,61.3,59.0,30.27,East,90,1.6,3.8,92,0.00,,,0.00,pywws,2013-05-29 11:35:00,
2013-05-29 07:41:00,61.9,59.5,30.27,South,180,2.2,4.5,92,0.00,,,0.00,pywws,2013-05-29 11:41:00,
2013-05-29 07:46:00,62.2,59.6,30.27,East,90,0.7,2.2,91,0.00,,,0.00,pywws,2013-05-29 11:46:00,
2013-05-29 07:52:00,62.8,59.5,30.27,SE,135,1.6,3.8,89,0.00,,,0.00,pywws,2013-05-29 11:52:00,
2013-05-29 07:58:00,63.1,59.5,30.27,SW,225,0.7,2.2,88,0.00,,,0.00,pywws,2013-05-29 11:58:00,
2013-05-29 08:04:00,63.3,59.7,30.27,NE,45,4.5,6.9,88,0.00,,,0.00,pywws,2013-05-29 12:04:00,
2013-05-29 08:10:00,64.6,60.6,30.27,South,180,3.8,6.9,87,0.00,,,0.00,pywws,2013-05-29 12:10:00,
2013-05-29 08:15:00,65.3,60.7,30.28,WNW,292,1.6,3.1,85,0.00,,,0.00,pywws,2013-05-29 12:15:00,
2013-05-29 08:21:00,66.4,60.7,30.28,East,90,2.2,3.8,82,0.00,,,0.00,pywws,2013-05-29 12:21:00,
2013-05-29 08:26:00,68.0,60.5,30.28,South,180,0.7,2.2,77,0.00,,,0.00,pywws,2013-05-29 12:26:00,
2013-05-29 08:32:00,69.1,61.2,30.28,North,0,0.7,1.6,76,0.00,,,0.00,pywws,2013-05-29 12:32:00,
2013-05-29 08:38:00,70.9,61.0,30.28,East,90,0.7,1.6,71,0.00,,,0.00,pywws,2013-05-29 12:38:00,
2013-05-29 08:43:00,71.6,60.5,30.28,NE,45,1.6,2.2,68,0.00,,,0.00,pywws,2013-05-29 12:43:00,
2013-05-29 08:49:00,72.0,60.4,30.28,North,0,1.6,3.1,67,0.00,,,0.00,pywws,2013-05-29 12:49:00,
2013-05-29 08:54:00,72.7,60.7,30.28,SW,225,2.2,3.1,66,0.00,,,0.00,pywws,2013-05-29 12:54:00,
2013-05-29 09:00:00,73.8,61.7,30.28,East,90,1.6,3.1,66,0.00,,,0.00,pywws,2013-05-29 13:00:00,
2013-05-29 09:06:00,73.9,61.4,30.29,South,180,3.1,3.8,65,0.00,,,0.00,pywws,2013-05-29 13:06:00,
2013-05-29 09:11:00,74.3,61.8,30.29,East,90,2.2,3.8,65,0.00,,,0.00,pywws,2013-05-29 13:11:00,
2013-05-29 09:17:00,75.4,61.4,30.29,East,90,2.2,3.8,62,0.00,,,0.00,pywws,2013-05-29 13:17:00,
2013-05-29 09:22:00,75.7,61.3,30.29,East,90,1.6,3.1,61,0.00,,,0.00,pywws,2013-05-29 13:22:00,
2013-05-29 09:28:00,76.5,61.5,30.29,NE,45,0.0,1.6,60,0.00,,,0.00,pywws,2013-05-29 13:28:00,
2013-05-29 09:34:00,78.1,61.1,30.29,NE,45,0.0,1.6,56,0.00,,,0.00,pywws,2013-05-29 13:34:00,
2013-05-29 09:39:00,79.0,60.9,30.29,South,180,2.2,3.1,54,0.00,,,0.00,pywws,2013-05-29 13:39:00,
2013-05-29 09:45:00,78.1,61.1,30.29,SW,225,1.6,2.2,56,0.00,,,0.00,pywws,2013-05-29 13:45:00,
2013-05-29 09:50:00,79.3,61.2,30.29,East,90,0.7,1.6,54,0.00,,,0.00,pywws,2013-05-29 13:50:00,
2013-05-29 09:56:00,79.7,61.0,30.29,SSE,158,0.7,3.1,53,0.00,,,0.00,pywws,2013-05-29 13:56:00,
2013-05-29 10:02:00,79.3,61.7,30.29,South,180,0.0,1.6,55,0.00,,,0.00,pywws,2013-05-29 14:02:00,
2013-05-29 10:07:00,81.5,60.5,30.29,NE,45,0.7,1.6,49,0.00,,,0.00,pywws,2013-05-29 14:07:00,
2013-05-29 10:13:00,82.8,61.6,30.29,SW,225,1.6,3.1,49,0.00,,,0.00,pywws,2013-05-29 14:13:00,
2013-05-29 10:18:00,82.0,61.0,30.29,NE,45,1.6,3.8,49,0.00,,,0.00,pywws,2013-05-29 14:18:00,
2013-05-29 10:24:00,82.9,61.2,30.29,NE,45,0.7,1.6,48,0.00,,,0.00,pywws,2013-05-29 14:24:00,
2013-05-29 10:30:00,84.0,62.2,30.29,NE,45,0.0,1.6,48,0.00,,,0.00,pywws,2013-05-29 14:30:00,
2013-05-29 10:35:00,84.0,61.0,30.28,East,90,1.6,3.1,46,0.00,,,0.00,pywws,2013-05-29 14:35:00,
2013-05-29 10:41:00,83.5,60.5,30.28,South,180,0.7,3.1,46,0.00,,,0.00,pywws,2013-05-29 14:41:00,
2013-05-29 10:46:00,82.9,60.6,30.28,West,270,1.6,3.1,47,0.00,,,0.00,pywws,2013-05-29 14:46:00,
2013-05-29 10:52:00,83.5,59.9,30.28,North,0,0.7,1.6,45,0.00,,,0.00,pywws,2013-05-29 14:52:00,
2013-05-29 10:58:00,84.7,60.4,30.28,NE,45,0.7,1.6,44,0.00,,,0.00,pywws,2013-05-29 14:58:00,
2013-05-29 11:03:00,85.6,61.8,30.28,South,180,0.7,2.2,45,0.00,,,0.00,pywws,2013-05-29 15:03:00,
2013-05-29 11:09:00,86.4,59.2,30.28,East,90,0.7,3.1,40,0.00,,,0.00,pywws,2013-05-29 15:09:00,
2013-05-29 11:14:00,86.7,57.3,30.28,SW,225,1.6,3.1,37,0.00,,,0.00,pywws,2013-05-29 15:14:00,
2013-05-29 11:20:00,87.1,56.9,30.28,East,90,0.7,1.6,36,0.00,,,0.00,pywws,2013-05-29 15:20:00,
2013-05-29 11:26:00,87.6,61.0,30.28,East,90,2.2,3.8,41,0.00,,,0.00,pywws,2013-05-29 15:26:00,
2013-05-29 11:31:00,87.1,57.6,30.29,NE,45,1.6,2.2,37,0.00,,,0.00,pywws,2013-05-29 15:31:00,
2013-05-29 11:37:00,87.8,59.0,30.28,South,180,1.6,3.1,38,0.00,,,0.00,pywws,2013-05-29 15:37:00,
2013-05-29 11:42:00,88.9,59.2,30.28,East,90,1.6,2.2,37,0.00,,,0.00,pywws,2013-05-29 15:42:00,
2013-05-29 11:48:00,89.1,57.0,30.28,West,270,2.2,3.1,34,0.00,,,0.00,pywws,2013-05-29 15:48:00,
2013-05-29 11:54:00,88.5,57.3,30.28,South,180,0.7,1.6,35,0.00,,,0.00,pywws,2013-05-29 15:54:00,
2013-05-29 11:59:00,88.5,58.1,30.27,NNE,22,1.6,2.2,36,0.00,,,0.00,pywws,2013-05-29 15:59:00,
2013-05-29 12:05:00,89.4,58.1,30.28,SE,135,0.7,1.6,35,0.00,,,0.00,pywws,2013-05-29 16:05:00,
2013-05-29 12:10:00,90.3,58.1,30.28,East,90,0.7,1.6,34,0.00,,,0.00,pywws,2013-05-29 16:10:00,
2013-05-29 12:16:00,90.5,56.6,30.28,East,90,3.8,6.0,32,0.00,,,0.00,pywws,2013-05-29 16:16:00,
2013-05-29 12:22:00,90.5,56.6,30.28,East,90,3.8,6.0,32,0.00,,,0.00,pywws,2013-05-29 16:22:00,
2013-05-29 12:28:00,90.1,55.4,30.27,South,180,2.2,3.1,31,0.00,,,0.00,pywws,2013-05-29 16:28:00,
2013-05-29 12:34:00,89.6,54.9,30.27,SE,135,3.8,6.0,31,0.00,,,0.00,pywws,2013-05-29 16:34:00,
2013-05-29 12:39:00,88.7,55.9,30.27,East,90,0.7,2.2,33,0.00,,,0.00,pywws,2013-05-29 16:39:00,
2013-05-29 12:45:00,89.6,54.9,30.27,NE,45,1.6,2.2,31,0.00,,,0.00,pywws,2013-05-29 16:45:00,
2013-05-29 12:50:00,89.6,54.9,30.27,West,270,1.6,2.2,31,0.00,,,0.00,pywws,2013-05-29 16:50:00,
2013-05-29 12:56:00,88.5,57.3,30.27,South,180,7.6,9.8,35,0.00,,,0.00,pywws,2013-05-29 16:56:00,
2013-05-29 13:02:00,89.2,54.6,30.27,NE,45,1.6,3.8,31,0.00,,,0.00,pywws,2013-05-29 17:02:00,
2013-05-29 13:07:00,89.6,53.1,30.27,SE,135,1.6,2.2,29,0.00,,,0.00,pywws,2013-05-29 17:07:00,
2013-05-29 13:13:00,90.7,52.1,30.27,East,90,1.6,3.1,27,0.00,,,0.00,pywws,2013-05-29 17:13:00,
2013-05-29 13:18:00,89.8,54.2,30.26,South,180,1.6,3.1,30,0.00,,,0.00,pywws,2013-05-29 17:18:00,
2013-05-29 13:24:00,90.5,51.9,30.26,NE,45,2.2,3.8,27,0.00,,,0.00,pywws,2013-05-29 17:24:00,
2013-05-29 13:30:00,90.5,51.9,30.26,NE,45,1.6,2.2,27,0.00,,,0.00,pywws,2013-05-29 17:30:00,
2013-05-29 13:35:00,89.6,51.1,30.26,East,90,1.6,3.1,27,0.00,,,0.00,pywws,2013-05-29 17:35:00,
2013-05-29 13:41:00,89.6,53.1,30.25,NE,45,2.2,3.1,29,0.00,,,0.00,pywws,2013-05-29 17:41:00,
2013-05-29 13:46:00,89.2,48.8,30.25,East,90,0.7,1.6,25,0.00,,,0.00,pywws,2013-05-29 17:46:00,
2013-05-29 13:52:00,91.4,56.5,30.25,North,0,0.7,2.2,31,0.00,,,0.00,pywws,2013-05-29 17:52:00,
2013-05-29 13:58:00,92.1,58.0,30.24,East,90,1.6,2.2,32,0.00,,,0.00,pywws,2013-05-29 17:58:00,
2013-05-29 14:03:00,92.5,60.0,30.25,SE,135,1.6,3.1,34,0.00,,,0.00,pywws,2013-05-29 18:03:00,
2013-05-29 14:09:00,92.5,53.6,30.25,South,180,3.1,5.4,27,0.00,,,0.00,pywws,2013-05-29 18:09:00,
2013-05-29 14:14:00,92.1,54.3,30.25,SW,225,0.7,1.6,28,0.00,,,0.00,pywws,2013-05-29 18:14:00,
2013-05-29 14:20:00,92.5,54.6,30.25,South,180,0.7,2.2,28,0.00,,,0.00,pywws,2013-05-29 18:20:00,
2013-05-29 14:26:00,92.7,55.7,30.25,East,90,3.1,5.4,29,0.00,,,0.00,pywws,2013-05-29 18:26:00,
2013-05-29 14:31:00,91.9,56.0,30.24,SE,135,1.6,2.2,30,0.00,,,0.00,pywws,2013-05-29 18:31:00,
2013-05-29 14:37:00,91.2,56.3,30.25,South,180,2.2,5.4,31,0.00,,,0.00,pywws,2013-05-29 18:37:00,
2013-05-29 14:42:00,89.4,55.6,30.24,South,180,1.6,2.2,32,0.00,,,0.00,pywws,2013-05-29 18:42:00,
2013-05-29 14:48:00,90.3,56.4,30.24,SE,135,1.6,2.2,32,0.00,,,0.00,pywws,2013-05-29 18:48:00,
2013-05-29 14:54:00,88.7,58.3,30.24,NE,45,2.2,5.4,36,0.00,,,0.00,pywws,2013-05-29 18:54:00,
2013-05-29 14:59:00,89.8,56.8,30.24,East,90,2.2,3.8,33,0.00,,,0.00,pywws,2013-05-29 18:59:00,
2013-05-29 15:05:00,89.8,58.4,30.24,NE,45,3.1,6.0,35,0.00,,,0.00,pywws,2013-05-29 19:05:00,
2013-05-29 15:10:00,90.1,59.5,30.24,NW,315,1.6,2.2,36,0.00,,,0.00,pywws,2013-05-29 19:10:00,
2013-05-29 15:16:00,91.6,60.0,30.24,ESE,112,2.2,3.8,35,0.00,,,0.00,pywws,2013-05-29 19:16:00,
2013-05-29 15:22:00,91.0,59.5,30.23,East,90,3.1,6.9,35,0.00,,,0.00,pywws,2013-05-29 19:22:00,
2013-05-29 15:27:00,91.0,58.7,30.24,SE,135,1.6,3.8,34,0.00,,,0.00,pywws,2013-05-29 19:27:00,
2013-05-29 15:33:00,91.2,59.7,30.23,SE,135,2.2,4.5,35,0.00,,,0.00,pywws,2013-05-29 19:33:00,
2013-05-29 15:38:00,90.3,58.1,30.23,East,90,3.8,6.9,34,0.00,,,0.00,pywws,2013-05-29 19:38:00,
2013-05-29 15:44:00,90.3,58.9,30.23,SE,135,3.8,6.0,35,0.00,,,0.00,pywws,2013-05-29 19:44:00,
2013-05-29 15:50:00,90.9,60.2,30.23,SW,225,4.5,6.0,36,0.00,,,0.00,pywws,2013-05-29 19:50:00,
2013-05-29 15:55:00,88.3,60.9,30.23,SE,135,8.3,11.4,40,0.00,,,0.00,pywws,2013-05-29 19:55:00,
2013-05-29 16:01:00,88.9,59.9,30.22,East,90,3.8,6.0,38,0.00,,,0.00,pywws,2013-05-29 20:01:00,
2013-05-29 16:06:00,88.3,60.2,30.22,SE,135,3.1,4.5,39,0.00,,,0.00,pywws,2013-05-29 20:06:00,
2013-05-29 16:12:00,88.5,60.4,30.22,ENE,68,6.0,10.7,39,0.00,,,0.00,pywws,2013-05-29 20:12:00,
2013-05-29 16:18:00,89.1,62.3,30.22,SE,135,3.1,3.8,41,0.00,,,0.00,pywws,2013-05-29 20:18:00,
2013-05-29 16:23:00,89.1,60.8,30.21,SW,225,5.4,10.7,39,0.00,,,0.00,pywws,2013-05-29 20:23:00,
2013-05-29 16:29:00,89.4,61.2,30.22,SE,135,6.0,7.6,39,0.00,,,0.00,pywws,2013-05-29 20:29:00,
2013-05-29 16:34:00,88.5,61.8,30.21,South,180,5.4,9.8,41,0.00,,,0.00,pywws,2013-05-29 20:34:00,
2013-05-29 16:40:00,88.3,60.9,30.21,SE,135,4.5,7.6,40,0.00,,,0.00,pywws,2013-05-29 20:40:00,
2013-05-29 16:46:00,88.5,61.1,30.21,SE,135,4.5,9.2,40,0.00,,,0.00,pywws,2013-05-29 20:46:00,
2013-05-29 16:51:00,88.9,61.4,30.20,NE,45,2.2,3.8,40,0.00,,,0.00,pywws,2013-05-29 20:51:00,
2013-05-29 16:57:00,88.7,61.9,30.20,NE,45,1.6,3.1,41,0.00,,,0.00,pywws,2013-05-29 20:57:00,
2013-05-29 17:02:00,88.7,60.5,30.21,North,0,2.2,6.0,39,0.00,,,0.00,pywws,2013-05-29 21:02:00,
2013-05-29 17:08:00,88.0,60.6,30.20,East,90,1.6,3.1,40,0.00,,,0.00,pywws,2013-05-29 21:08:00,
2013-05-29 17:14:00,89.6,62.7,30.20,East,90,3.8,7.6,41,0.00,,,0.00,pywws,2013-05-29 21:14:00,
2013-05-29 17:19:00,88.2,60.8,30.21,NE,45,2.2,6.9,40,0.00,,,0.00,pywws,2013-05-29 21:19:00,
2013-05-29 17:25:00,88.5,60.4,30.21,East,90,3.1,9.8,39,0.00,,,0.00,pywws,2013-05-29 21:25:00,
2013-05-29 17:30:00,88.0,60.6,30.21,South,180,3.1,6.0,40,0.00,,,0.00,pywws,2013-05-29 21:30:00,
2013-05-29 17:36:00,88.3,60.9,30.21,NNE,22,5.4,6.9,40,0.00,,,0.00,pywws,2013-05-29 21:36:00,
2013-05-29 17:42:00,87.4,60.1,30.21,SE,135,3.1,5.4,40,0.00,,,0.00,pywws,2013-05-29 21:42:00,
2013-05-29 17:47:00,87.4,59.4,30.21,East,90,6.9,12.1,39,0.00,,,0.00,pywws,2013-05-29 21:47:00,
2013-05-29 17:53:00,86.5,59.3,30.20,NE,45,5.4,9.2,40,0.00,,,0.00,pywws,2013-05-29 21:53:00,
2013-05-29 17:58:00,86.7,59.5,30.21,South,180,5.4,6.9,40,0.00,,,0.00,pywws,2013-05-29 21:58:00,
2013-05-29 18:04:00,86.5,60.0,30.21,East,90,4.5,8.3,41,0.00,,,0.00,pywws,2013-05-29 22:04:00,
2013-05-29 18:10:00,86.2,59.7,30.21,East,90,6.0,9.2,41,0.00,,,0.00,pywws,2013-05-29 22:10:00,
2013-05-29 18:15:00,86.5,60.0,30.21,NE,45,3.1,6.0,41,0.00,,,0.00,pywws,2013-05-29 22:15:00,
2013-05-29 18:21:00,86.5,60.0,30.21,NE,45,3.1,5.4,41,0.00,,,0.00,pywws,2013-05-29 22:21:00,
2013-05-29 18:26:00,86.4,60.5,30.21,East,90,3.1,4.5,42,0.00,,,0.00,pywws,2013-05-29 22:26:00,
2013-05-29 18:32:00,87.6,61.0,30.22,South,180,4.5,8.3,41,0.00,,,0.00,pywws,2013-05-29 22:32:00,
2013-05-29 18:38:00,86.5,60.7,30.22,NE,45,3.1,5.4,42,0.00,,,0.00,pywws,2013-05-29 22:38:00,
2013-05-29 18:43:00,86.7,61.5,30.22,SE,135,3.1,4.5,43,0.00,,,0.00,pywws,2013-05-29 22:43:00,
2013-05-29 18:49:00,86.5,60.7,30.22,West,270,3.1,7.6,42,0.00,,,0.00,pywws,2013-05-29 22:49:00,
2013-05-29 18:54:00,85.3,60.9,30.22,East,90,3.8,5.4,44,0.00,,,0.00,pywws,2013-05-29 22:54:00,
2013-05-29 19:00:00,84.2,59.9,30.22,East,90,4.5,6.9,44,0.00,,,0.00,pywws,2013-05-29 23:00:00,
2013-05-29 19:06:00,84.0,60.4,30.22,East,90,3.1,4.5,45,0.00,,,0.00,pywws,2013-05-29 23:06:00,
2013-05-29 19:11:00,82.6,59.7,30.22,SE,135,6.9,10.7,46,0.00,,,0.00,pywws,2013-05-29 23:11:00,
2013-05-29 19:17:00,81.0,57.6,30.22,East,90,1.6,3.8,45,0.00,,,0.00,pywws,2013-05-29 23:17:00,
2013-05-29 19:22:00,80.4,58.3,30.22,East,90,4.5,6.9,47,0.00,,,0.00,pywws,2013-05-29 23:22:00,
2013-05-29 19:28:00,79.3,57.3,30.22,East,90,3.1,6.0,47,0.00,,,0.00,pywws,2013-05-29 23:28:00,
2013-05-29 19:34:00,78.6,57.8,30.22,East,90,4.5,10.7,49,0.00,,,0.00,pywws,2013-05-29 23:34:00,
2013-05-29 19:39:00,78.3,57.5,30.23,North,0,4.5,7.6,49,0.00,,,0.00,pywws,2013-05-29 23:39:00,
2013-05-29 19:45:00,77.9,57.2,30.23,South,180,4.5,7.6,49,0.00,,,0.00,pywws,2013-05-29 23:45:00,
2013-05-29 19:50:00,77.4,57.8,30.23,South,180,4.5,6.0,51,0.00,,,0.00,pywws,2013-05-29 23:50:00,
2013-05-29 19:56:00,77.0,58.0,30.23,SE,135,2.2,7.6,52,0.00,,,0.00,pywws,2013-05-29 23:56:00,
2013-05-29 20:02:00,76.6,58.7,30.23,East,90,3.8,6.9,54,0.00,,,0.00,pywws,2013-05-30 00:02:00,
2013-05-29 20:07:00,76.3,58.9,30.22,East,90,6.9,9.2,55,0.00,,,0.00,pywws,2013-05-30 00:07:00,
2013-05-29 20:13:00,75.7,58.4,30.22,SE,135,3.8,6.0,55,0.00,,,0.00,pywws,2013-05-30 00:13:00,
2013-05-29 20:18:00,75.4,58.6,30.22,East,90,3.8,6.9,56,0.00,,,0.00,pywws,2013-05-30 00:18:00,
2013-05-29 20:24:00,75.0,58.7,30.22,South,180,1.6,3.8,57,0.00,,,0.00,pywws,2013-05-30 00:24:00,
2013-05-29 20:30:00,74.7,58.4,30.23,SSW,202,1.6,3.8,57,0.00,,,0.00,pywws,2013-05-30 00:30:00,
2013-05-29 20:35:00,74.3,58.1,30.22,NE,45,3.8,5.4,57,0.00,,,0.00,pywws,2013-05-30 00:35:00,
2013-05-29 20:41:00,74.1,58.4,30.23,East,90,3.1,4.5,58,0.00,,,0.00,pywws,2013-05-30 00:41:00,
2013-05-29 20:46:00,73.6,57.9,30.22,North,0,3.8,5.4,58,0.00,,,0.00,pywws,2013-05-30 00:46:00,
2013-05-29 20:52:00,73.4,57.7,30.23,SE,135,3.8,6.9,58,0.00,,,0.00,pywws,2013-05-30 00:52:00,
2013-05-29 20:58:00,73.0,58.3,30.23,West,270,1.6,2.2,60,0.00,,,0.00,pywws,2013-05-30 00:58:00,
2013-05-29 21:03:00,72.7,58.0,30.23,South,180,1.6,2.2,60,0.00,,,0.00,pywws,2013-05-30 01:03:00,
2013-05-29 21:09:00,72.5,58.3,30.24,South,180,3.1,5.4,61,0.00,,,0.00,pywws,2013-05-30 01:09:00,
2013-05-29 21:14:00,72.1,57.9,30.24,East,90,0.7,1.6,61,0.00,,,0.00,pywws,2013-05-30 01:14:00,
2013-05-29 21:20:00,71.6,57.9,30.24,SW,225,0.7,2.2,62,0.00,,,0.00,pywws,2013-05-30 01:20:00,
2013-05-29 21:26:00,71.4,58.2,30.24,South,180,1.6,3.1,63,0.00,,,0.00,pywws,2013-05-30 01:26:00,
2013-05-29 21:32:00,71.2,58.0,30.24,South,180,1.6,2.2,63,0.00,,,0.00,pywws,2013-05-30 01:32:00,
2013-05-29 21:38:00,71.1,57.8,30.24,South,180,0.0,1.6,63,0.00,,,0.00,pywws,2013-05-30 01:38:00,
2013-05-29 21:43:00,70.7,57.9,30.24,SW,225,0.7,1.6,64,0.00,,,0.00,pywws,2013-05-30 01:43:00,
2013-05-29 21:49:00,70.3,57.6,30.24,SSE,158,1.6,2.2,64,0.00,,,0.00,pywws,2013-05-30 01:49:00,
2013-05-29 21:54:00,70.2,57.8,30.25,SW,225,2.2,3.1,65,0.00,,,0.00,pywws,2013-05-30 01:54:00,
2013-05-29 22:00:00,69.8,57.5,30.25,NW,315,1.6,3.1,65,0.00,,,0.00,pywws,2013-05-30 02:00:00,
2013-05-29 22:06:00,69.6,57.7,30.25,SW,225,0.7,1.6,66,0.00,,,0.00,pywws,2013-05-30 02:06:00,
2013-05-29 22:11:00,69.3,58.2,30.25,East,90,0.0,0.7,68,0.00,,,0.00,pywws,2013-05-30 02:11:00,
2013-05-29 22:17:00,68.9,58.3,30.26,WNW,292,0.7,1.6,69,0.00,,,0.00,pywws,2013-05-30 02:17:00,
2013-05-29 22:22:00,68.7,58.1,30.26,East,90,0.0,1.6,69,0.00,,,0.00,pywws,2013-05-30 02:22:00,
2013-05-29 22:28:00,68.5,58.4,30.26,SW,225,0.7,1.6,70,0.00,,,0.00,pywws,2013-05-30 02:28:00,
2013-05-29 22:34:00,68.4,58.2,30.26,WNW,292,0.7,1.6,70,0.00,,,0.00,pywws,2013-05-30 02:34:00,
2013-05-29 22:39:00,68.5,59.1,30.26,WNW,292,0.7,1.6,72,0.00,,,0.00,pywws,2013-05-30 02:39:00,
2013-05-29 22:45:00,68.5,59.1,30.26,South,180,0.7,2.2,72,0.00,,,0.00,pywws,2013-05-30 02:45:00,
2013-05-29 22:50:00,68.5,59.1,30.26,West,270,1.6,2.2,72,0.00,,,0.00,pywws,2013-05-30 02:50:00,
2013-05-29 22:56:00,68.2,58.8,30.27,NW,315,2.2,3.8,72,0.00,,,0.00,pywws,2013-05-30 02:56:00,
2013-05-29 23:02:00,67.8,58.8,30.27,SE,135,0.0,1.6,73,0.00,,,0.00,pywws,2013-05-30 03:02:00,
2013-05-29 23:07:00,67.5,58.9,30.27,South,180,0.0,0.7,74,0.00,,,0.00,pywws,2013-05-30 03:07:00,
2013-05-29 23:13:00,67.1,58.5,30.27,West,270,0.7,2.2,74,0.00,,,0.00,pywws,2013-05-30 03:13:00,
2013-05-29 23:18:00,66.9,58.7,30.27,East,90,0.7,3.1,75,0.00,,,0.00,pywws,2013-05-30 03:18:00,
2013-05-29 23:24:00,66.6,58.8,30.27,South,180,0.7,2.2,76,0.00,,,0.00,pywws,2013-05-30 03:24:00,
2013-05-29 23:30:00,66.4,58.9,30.26,SE,135,1.6,2.2,77,0.00,,,0.00,pywws,2013-05-30 03:30:00,
2013-05-29 23:35:00,66.2,58.4,30.26,South,180,0.7,1.6,76,0.00,,,0.00,pywws,2013-05-30 03:35:00,
2013-05-29 23:41:00,66.2,58.8,30.27,East,90,2.2,3.1,77,0.00,,,0.00,pywws,2013-05-30 03:41:00,
2013-05-29 23:46:00,66.0,59.3,30.27,SE,135,0.7,2.2,79,0.00,,,0.00,pywws,2013-05-30 03:46:00,
2013-05-29 23:52:00,65.7,59.0,30.27,SW,225,0.7,1.6,79,0.00,,,0.00,pywws,2013-05-30 03:52:00,
2013-05-29 23:58:00,65.5,59.1,30.27,SE,135,0.7,2.2,80,0.00,,,0.00,pywws,2013-05-30 03:58:00,